createdAt,value
2023-02-18T00:00:15.261Z,8.80
2023-02-18T00:02:41.925Z,8.80
2023-02-18T00:05:08.604Z,8.60
2023-02-18T00:07:35.970Z,8.60
2023-02-18T00:10:03.646Z,8.70
2023-02-18T00:12:30.714Z,8.60
2023-02-18T00:14:57.541Z,8.60
2023-02-18T00:17:24.270Z,8.60
2023-02-18T00:19:50.820Z,8.60
2023-02-18T00:22:17.435Z,8.50
2023-02-18T00:24:43.917Z,8.40
2023-02-18T00:27:10.483Z,8.50
2023-02-18T00:29:37.017Z,8.50
2023-02-18T00:32:03.663Z,8.40
2023-02-18T00:34:30.306Z,8.40
2023-02-18T00:36:56.868Z,8.50
2023-02-18T00:39:23.371Z,8.40
2023-02-18T00:41:49.963Z,8.50
2023-02-18T00:44:16.532Z,8.50
2023-02-18T00:46:43.306Z,8.50
2023-02-18T00:49:09.874Z,8.40
2023-02-18T00:51:36.857Z,8.50
2023-02-18T00:54:03.458Z,8.40
2023-02-18T00:56:29.936Z,8.40
2023-02-18T00:58:56.438Z,8.40
2023-02-18T01:01:23.132Z,8.40
2023-02-18T01:03:49.680Z,8.40
2023-02-18T01:06:16.563Z,8.40
2023-02-18T01:08:43.064Z,8.40
2023-02-18T01:11:10.936Z,8.40
2023-02-18T01:13:37.496Z,8.40
2023-02-18T01:16:04.194Z,8.40
2023-02-18T01:18:31.155Z,8.30
2023-02-18T01:20:57.637Z,8.30
2023-02-18T01:23:24.171Z,8.40
2023-02-18T01:25:51.105Z,8.30
2023-02-18T01:28:18.728Z,8.30
2023-02-18T01:30:45.251Z,8.40
2023-02-18T01:33:11.811Z,8.40
2023-02-18T01:35:39.608Z,8.30
2023-02-18T01:38:06.268Z,8.30
2023-02-18T01:40:32.892Z,8.30
2023-02-18T01:42:59.390Z,8.40
2023-02-18T01:45:35.200Z,8.40
2023-02-18T01:48:09.337Z,8.40
2023-02-18T01:50:37.320Z,8.40
2023-02-18T01:53:04.581Z,8.30
2023-02-18T01:55:31.641Z,8.40
2023-02-18T01:57:58.132Z,8.30
2023-02-18T02:00:24.651Z,8.30
2023-02-18T02:02:52.285Z,8.30
2023-02-18T02:05:20.021Z,8.30
2023-02-18T02:07:47.753Z,8.30
2023-02-18T02:10:14.911Z,8.30
2023-02-18T02:12:44.576Z,8.30
2023-02-18T02:15:18.501Z,8.30
2023-02-18T02:17:44.979Z,8.40
2023-02-18T02:20:24.800Z,8.30
2023-02-18T02:23:02.037Z,8.20
2023-02-18T02:25:47.137Z,8.20
2023-02-18T02:28:34.115Z,8.30
2023-02-18T02:31:19.336Z,8.30
2023-02-18T02:33:50.071Z,8.20
2023-02-18T02:36:23.587Z,8.20
2023-02-18T02:38:55.319Z,8.20
2023-02-18T02:41:35.040Z,8.20
2023-02-18T02:44:21.359Z,8.20
2023-02-18T02:50:28.978Z,8.20
2023-02-18T02:52:58.607Z,8.10
2023-02-18T02:55:25.572Z,8.10
2023-02-18T02:57:53.433Z,8.00
2023-02-18T03:00:23.149Z,8.00
2023-02-18T03:02:58.938Z,7.90
2023-02-18T03:05:44.548Z,7.90
2023-02-18T03:08:18.081Z,7.90
2023-02-18T03:10:57.388Z,7.80
2023-02-18T03:13:26.999Z,7.80
2023-02-18T03:16:04.319Z,7.80
2023-02-18T03:18:36.669Z,7.80
2023-02-18T03:21:18.348Z,7.80
2023-02-18T03:23:55.244Z,7.80
2023-02-18T03:26:23.120Z,7.80
2023-02-18T03:28:51.220Z,7.70
2023-02-18T03:31:21.169Z,7.70
2023-02-18T03:33:59.810Z,7.70
2023-02-18T03:36:27.339Z,7.70
2023-02-18T03:38:56.024Z,7.70
2023-02-18T03:41:22.567Z,7.70
2023-02-18T03:43:50.383Z,7.70
2023-02-18T03:46:16.951Z,7.70
2023-02-18T03:48:43.712Z,7.70
2023-02-18T03:51:10.282Z,7.80
2023-02-18T03:53:36.776Z,7.80
2023-02-18T03:56:03.492Z,7.80
2023-02-18T03:58:30.029Z,7.80
2023-02-18T04:00:56.651Z,7.80
2023-02-18T04:03:23.184Z,7.80
2023-02-18T04:05:49.750Z,7.80
2023-02-18T04:08:16.470Z,7.80
2023-02-18T04:10:42.961Z,7.80
2023-02-18T04:13:09.604Z,7.90
2023-02-18T04:15:36.954Z,7.90
2023-02-18T04:18:03.576Z,7.90
2023-02-18T04:20:30.152Z,7.90
2023-02-18T04:22:56.659Z,7.80
2023-02-18T04:25:23.197Z,7.90
2023-02-18T04:27:49.731Z,7.90
2023-02-18T04:30:18.812Z,8.00
2023-02-18T04:32:45.640Z,7.90
2023-02-18T04:35:12.163Z,7.90
2023-02-18T04:37:38.674Z,7.90
2023-02-18T04:40:05.496Z,7.90
2023-02-18T04:42:32.121Z,7.90
2023-02-18T04:44:58.636Z,7.90
2023-02-18T04:47:25.130Z,7.90
2023-02-18T04:49:51.697Z,7.80
2023-02-18T04:52:18.393Z,7.80
2023-02-18T04:54:44.936Z,7.80
2023-02-18T04:57:11.718Z,7.80
2023-02-18T04:59:38.610Z,7.80
2023-02-18T05:02:05.135Z,7.80
2023-02-18T05:04:31.763Z,7.80
2023-02-18T05:06:58.289Z,7.80
2023-02-18T05:09:25.014Z,7.70
2023-02-18T05:11:51.769Z,7.70
2023-02-18T05:14:18.395Z,7.80
2023-02-18T05:16:44.890Z,7.80
2023-02-18T05:19:14.144Z,7.90
2023-02-18T05:21:40.712Z,7.80
2023-02-18T05:24:08.602Z,7.80
2023-02-18T05:26:35.577Z,7.80
2023-02-18T05:29:02.082Z,7.80
2023-02-18T05:31:28.712Z,7.80
2023-02-18T05:33:55.325Z,7.80
2023-02-18T05:36:21.977Z,7.80
2023-02-18T05:38:48.495Z,7.80
2023-02-18T05:41:15.031Z,7.80
2023-02-18T05:44:00.307Z,7.70
2023-02-18T05:46:26.855Z,7.80
2023-02-18T05:48:53.419Z,7.70
2023-02-18T05:51:19.995Z,7.70
2023-02-18T05:53:46.510Z,7.60
2023-02-18T05:56:13.005Z,7.70
2023-02-18T05:58:39.536Z,7.70
2023-02-18T06:01:06.027Z,7.70
2023-02-18T06:03:32.601Z,7.70
2023-02-18T06:05:59.185Z,7.70
2023-02-18T06:08:25.822Z,7.60
2023-02-18T06:10:52.348Z,7.60
2023-02-18T06:13:19.010Z,7.60
2023-02-18T06:15:45.562Z,7.60
2023-02-18T06:18:12.612Z,7.50
2023-02-18T06:20:39.550Z,7.50
2023-02-18T06:23:07.567Z,7.50
2023-02-18T06:25:34.199Z,7.50
2023-02-18T06:28:00.736Z,7.50
2023-02-18T06:30:27.261Z,7.50
2023-02-18T06:32:53.841Z,7.50
2023-02-18T06:35:20.370Z,7.50
2023-02-18T06:37:47.687Z,7.60
2023-02-18T06:40:14.272Z,7.60
2023-02-18T06:42:40.880Z,7.60
2023-02-18T06:45:07.833Z,7.70
2023-02-18T06:47:34.392Z,7.70
2023-02-18T06:50:00.894Z,7.70
2023-02-18T06:52:27.403Z,7.80
2023-02-18T06:54:54.073Z,7.80
2023-02-18T06:57:20.563Z,8.00
2023-02-18T06:59:47.397Z,8.00
2023-02-18T07:02:13.941Z,8.00
2023-02-18T07:04:40.436Z,8.10
2023-02-18T07:07:06.951Z,8.20
2023-02-18T07:09:33.467Z,8.20
2023-02-18T07:12:00.282Z,8.20
2023-02-18T07:14:28.037Z,8.30
2023-02-18T07:16:54.591Z,8.40
2023-02-18T07:19:21.114Z,8.40
2023-02-18T07:21:47.712Z,8.50
2023-02-18T07:24:14.254Z,8.50
2023-02-18T07:26:40.811Z,8.60
2023-02-18T07:29:07.331Z,8.70
2023-02-18T07:31:33.967Z,8.70
2023-02-18T07:34:00.664Z,8.80
2023-02-18T07:36:27.317Z,8.80
2023-02-18T07:38:53.839Z,8.80
2023-02-18T07:41:21.703Z,8.80
2023-02-18T07:43:48.615Z,8.80
2023-02-18T07:46:15.706Z,8.90
2023-02-18T07:48:42.377Z,8.90
2023-02-18T07:51:09.710Z,9.00
2023-02-18T07:53:37.012Z,9.00
2023-02-18T07:56:03.642Z,9.10
2023-02-18T07:58:31.480Z,9.20
2023-02-18T08:00:58.284Z,9.20
2023-02-18T08:03:25.954Z,9.30
2023-02-18T08:05:52.560Z,9.30
2023-02-18T08:08:21.012Z,9.40
2023-02-18T08:10:47.932Z,9.40
2023-02-18T08:13:14.448Z,9.40
2023-02-18T08:15:41.019Z,9.50
2023-02-18T08:18:08.267Z,9.50
2023-02-18T08:20:38.266Z,9.50
2023-02-18T08:23:05.455Z,9.60
2023-02-18T08:25:32.465Z,9.70
2023-02-18T08:27:59.212Z,9.80
2023-02-18T08:30:26.269Z,9.80
2023-02-18T08:32:53.180Z,9.80
2023-02-18T08:35:19.784Z,9.80
2023-02-18T08:37:53.069Z,9.80
2023-02-18T08:40:20.916Z,9.90
2023-02-18T08:42:47.426Z,9.80
2023-02-18T08:45:13.961Z,9.80
2023-02-18T08:48:16.259Z,9.80
2023-02-18T08:50:28.270Z,9.80
2023-02-18T08:52:55.107Z,9.70
2023-02-18T08:55:21.632Z,9.70
2023-02-18T08:57:48.493Z,9.70
2023-02-18T09:00:16.158Z,9.70
2023-02-18T09:02:43.270Z,9.70
2023-02-18T09:05:10.345Z,9.70
2023-02-18T09:07:37.081Z,9.70
2023-02-18T09:10:04.008Z,9.70
2023-02-18T09:12:30.654Z,9.80
2023-02-18T09:14:57.409Z,9.80
2023-02-18T09:17:23.921Z,9.80
2023-02-18T09:19:50.458Z,9.70
2023-02-18T09:22:17.152Z,9.80
2023-02-18T09:24:43.808Z,9.80
2023-02-18T09:27:11.358Z,9.80
2023-02-18T09:29:39.263Z,9.70
2023-02-18T09:32:06.248Z,9.70
2023-02-18T09:34:32.966Z,9.70
2023-02-18T09:36:59.463Z,9.70
2023-02-18T09:39:26.723Z,9.80
2023-02-18T09:41:54.898Z,9.80
2023-02-18T09:44:25.286Z,9.90
2023-02-18T09:46:59.265Z,9.90
2023-02-18T09:49:27.176Z,9.90
2023-02-18T09:51:55.325Z,10.00
2023-02-18T09:54:22.010Z,10.00
2023-02-18T09:56:48.959Z,10.00
2023-02-18T09:59:21.004Z,10.10
2023-02-18T10:01:49.147Z,10.10
2023-02-18T10:04:23.877Z,10.10
2023-02-18T10:06:51.933Z,10.10
2023-02-18T10:09:20.917Z,10.10
2023-02-18T10:11:52.523Z,10.20
2023-02-18T10:14:19.044Z,10.20
2023-02-18T10:16:46.318Z,10.30
2023-02-18T10:19:24.206Z,10.40
2023-02-18T10:21:51.989Z,10.40
2023-02-18T10:24:18.481Z,10.50
2023-02-18T10:26:45.070Z,10.50
2023-02-18T10:29:14.532Z,10.60
2023-02-18T10:31:44.169Z,10.60
2023-02-18T10:34:29.809Z,10.70
2023-02-18T10:37:01.027Z,10.60
2023-02-18T10:39:49.163Z,10.70
2023-02-18T10:42:34.988Z,10.70
2023-02-18T10:45:19.919Z,10.70
2023-02-18T10:48:04.842Z,10.70
2023-02-18T10:50:41.607Z,10.70
2023-02-18T10:53:11.315Z,10.70
2023-02-18T10:55:42.117Z,10.70
2023-02-18T10:58:23.679Z,10.70
2023-02-18T11:00:50.404Z,10.70
2023-02-18T11:03:18.764Z,10.70
2023-02-18T11:05:47.108Z,10.60
2023-02-18T11:08:16.395Z,10.60
2023-02-18T11:10:44.817Z,10.60
2023-02-18T11:13:13.390Z,10.60
2023-02-18T11:15:53.304Z,10.50
2023-02-18T11:18:25.948Z,10.50
2023-02-18T11:20:57.811Z,10.50
2023-02-18T11:23:25.612Z,10.50
2023-02-18T11:26:06.111Z,10.50
2023-02-18T11:28:32.733Z,10.50
2023-02-18T11:31:00.267Z,10.50
2023-02-18T11:33:53.124Z,10.50
2023-02-18T11:36:22.384Z,10.50
2023-02-18T11:38:50.813Z,10.40
2023-02-18T11:41:18.833Z,10.30
2023-02-18T11:43:48.069Z,10.30
2023-02-18T11:46:19.108Z,10.30
2023-02-18T11:48:46.487Z,10.30
2023-02-18T11:51:39.468Z,10.20
2023-02-18T11:54:20.576Z,10.20
2023-02-18T11:56:54.642Z,10.20
2023-02-18T11:59:22.249Z,10.20
2023-02-18T12:01:54.994Z,10.20
2023-02-18T12:04:24.788Z,10.20
2023-02-18T12:07:01.648Z,10.20
2023-02-18T12:09:40.228Z,10.20
2023-02-18T12:12:17.636Z,10.20
2023-02-18T12:14:44.776Z,10.20
2023-02-18T12:17:11.525Z,10.10
2023-02-18T12:19:42.297Z,10.10
2023-02-18T12:22:14.086Z,10.00
2023-02-18T12:25:02.261Z,10.00
2023-02-18T12:27:38.921Z,10.00
2023-02-18T12:30:20.016Z,9.90
2023-02-18T12:32:51.248Z,9.90
2023-02-18T12:35:44.037Z,9.90
2023-02-18T12:38:29.770Z,9.80
2023-02-18T12:41:02.648Z,9.90
2023-02-18T12:43:36.520Z,9.90
2023-02-18T12:46:22.009Z,9.80
2023-02-18T12:48:54.556Z,9.90
2023-02-18T12:51:30.291Z,10.00
2023-02-18T12:53:56.897Z,10.00
2023-02-18T12:56:49.780Z,10.00
2023-02-18T12:59:25.201Z,10.00
2023-02-18T13:02:02.221Z,10.00
2023-02-18T13:04:47.397Z,10.00
2023-02-18T13:07:26.361Z,10.00
2023-02-18T13:10:12.328Z,10.00
2023-02-18T13:12:48.657Z,10.00
2023-02-18T13:15:33.575Z,10.00
2023-02-18T13:18:01.262Z,10.00
2023-02-18T13:20:40.418Z,10.00
2023-02-18T13:23:10.265Z,10.00
2023-02-18T13:25:38.882Z,10.00
2023-02-18T13:28:21.384Z,10.00
2023-02-18T13:31:08.657Z,10.00
2023-02-18T13:34:04.875Z,10.00
2023-02-18T13:36:31.629Z,9.90
2023-02-18T13:39:04.107Z,9.90
2023-02-18T13:41:34.395Z,9.90
2023-02-18T13:44:00.913Z,9.90
2023-02-18T13:46:28.215Z,9.90
2023-02-18T13:49:03.788Z,9.90
2023-02-18T13:51:31.987Z,9.90
2023-02-18T13:54:17.453Z,9.90
2023-02-18T13:56:50.888Z,9.90
2023-02-18T13:59:23.399Z,9.80
2023-02-18T14:01:50.946Z,9.90
2023-02-18T14:04:36.448Z,9.80
2023-02-18T14:07:21.768Z,9.80
2023-02-18T14:09:48.455Z,9.80
2023-02-18T14:12:16.927Z,9.80
2023-02-18T14:14:43.611Z,9.80
2023-02-18T14:17:14.001Z,9.80
2023-02-18T14:19:40.530Z,9.90
2023-02-18T14:22:24.481Z,9.80
2023-02-18T14:24:55.710Z,9.80
2023-02-18T14:27:23.856Z,9.90
2023-02-18T14:29:51.774Z,9.90
2023-02-18T14:32:19.643Z,9.90
2023-02-18T14:35:04.756Z,9.80
2023-02-18T14:37:43.943Z,9.90
2023-02-18T14:40:23.993Z,9.90
2023-02-18T14:43:05.852Z,9.80
2023-02-18T14:45:47.793Z,9.80
2023-02-18T14:48:24.040Z,9.80
2023-02-18T14:50:51.240Z,9.70
2023-02-18T14:53:19.599Z,9.80
2023-02-18T14:55:50.687Z,9.70
2023-02-18T14:58:28.028Z,9.70
2023-02-18T15:00:54.644Z,9.70
2023-02-18T15:03:22.609Z,9.70
2023-02-18T15:05:51.306Z,9.70
2023-02-18T15:08:21.794Z,9.80
2023-02-18T15:10:51.515Z,9.70
2023-02-18T15:13:21.397Z,9.70
2023-02-18T15:15:50.484Z,9.70
2023-02-18T15:18:20.503Z,9.80
2023-02-18T15:20:47.198Z,9.80
2023-02-18T15:23:15.872Z,9.80
2023-02-18T15:25:45.318Z,9.70
2023-02-18T15:28:22.543Z,9.70
2023-02-18T15:30:49.069Z,9.80
2023-02-18T15:33:15.887Z,9.70
2023-02-18T15:35:42.498Z,9.80
2023-02-18T15:38:19.240Z,9.70
2023-02-18T15:40:51.972Z,9.70
2023-02-18T15:43:23.363Z,9.70
2023-02-18T15:45:51.299Z,9.70
2023-02-18T15:48:24.423Z,9.70
2023-02-18T15:50:58.523Z,9.70
2023-02-18T15:53:29.884Z,9.80
2023-02-18T15:55:56.468Z,9.70
2023-02-18T15:58:22.951Z,9.70
2023-02-18T16:00:54.404Z,9.70
2023-02-18T16:03:25.349Z,9.70
2023-02-18T16:06:07.040Z,9.70
2023-02-18T16:08:33.736Z,9.70
2023-02-18T16:11:03.198Z,9.60
2023-02-18T16:13:31.360Z,9.70
2023-02-18T16:16:00.843Z,9.70
2023-02-18T16:18:29.334Z,9.70
2023-02-18T16:20:57.642Z,9.70
2023-02-18T16:23:31.354Z,9.60
2023-02-18T16:26:08.961Z,9.60
2023-02-18T16:28:35.655Z,9.50
2023-02-18T16:31:02.206Z,9.50
2023-02-18T16:33:28.787Z,9.50
2023-02-18T16:35:57.640Z,9.50
2023-02-18T16:38:24.390Z,9.50
2023-02-18T16:40:51.904Z,9.40
2023-02-18T16:43:19.874Z,9.50
2023-02-18T16:45:50.118Z,9.50
2023-02-18T16:48:21.179Z,9.40
2023-02-18T16:50:49.472Z,9.30
2023-02-18T16:53:16.154Z,9.30
2023-02-18T16:55:44.470Z,9.30
2023-02-18T16:58:10.965Z,9.20
2023-02-18T17:00:38.495Z,9.10
2023-02-18T17:03:05.691Z,9.10
2023-02-18T17:05:39.479Z,9.00
2023-02-18T17:08:12.426Z,9.00
2023-02-18T17:10:39.034Z,8.90
2023-02-18T17:13:05.551Z,9.00
2023-02-18T17:15:34.926Z,8.90
2023-02-18T17:18:01.744Z,8.80
2023-02-18T17:20:29.480Z,8.90
2023-02-18T17:22:56.273Z,8.90
2023-02-18T17:25:24.680Z,9.00
2023-02-18T17:27:51.693Z,9.10
2023-02-18T17:30:18.486Z,9.10
2023-02-18T17:32:45.411Z,9.20
2023-02-18T17:35:19.756Z,9.20
2023-02-18T17:37:46.462Z,9.20
2023-02-18T17:40:14.232Z,9.20
2023-02-18T17:42:40.792Z,9.20
2023-02-18T17:45:26.117Z,9.20
2023-02-18T17:47:52.617Z,9.10
2023-02-18T17:50:19.141Z,9.10
2023-02-18T17:52:46.321Z,9.10
2023-02-18T17:55:16.506Z,9.00
2023-02-18T17:57:44.934Z,8.90
2023-02-18T18:00:12.795Z,8.90
2023-02-18T18:02:39.327Z,8.90
2023-02-18T18:05:06.100Z,8.80
2023-02-18T18:07:32.673Z,8.80
2023-02-18T18:09:59.196Z,8.70
2023-02-18T18:12:25.753Z,8.70
2023-02-18T18:14:52.286Z,8.60
2023-02-18T18:17:18.922Z,8.50
2023-02-18T18:19:45.439Z,8.50
2023-02-18T18:22:11.948Z,8.40
2023-02-18T18:24:38.445Z,8.40
2023-02-18T18:27:04.939Z,8.30
2023-02-18T18:29:31.556Z,8.30
2023-02-18T18:31:58.104Z,8.20
2023-02-18T18:34:24.957Z,8.20
2023-02-18T18:36:51.526Z,8.10
2023-02-18T18:39:18.074Z,8.10
2023-02-18T18:41:44.654Z,8.10
2023-02-18T18:44:11.648Z,8.20
2023-02-18T18:46:39.061Z,8.10
2023-02-18T18:49:05.594Z,8.20
2023-02-18T18:51:32.594Z,8.20
2023-02-18T18:53:59.134Z,8.20
2023-02-18T18:56:25.676Z,8.20
2023-02-18T18:58:52.621Z,8.20
2023-02-18T19:01:22.499Z,8.10
2023-02-18T19:03:49.625Z,8.20
2023-02-18T19:06:16.718Z,8.20
2023-02-18T19:08:43.626Z,8.10
2023-02-18T19:11:11.270Z,8.10
2023-02-18T19:13:38.121Z,8.00
2023-02-18T19:16:20.035Z,8.00
2023-02-18T19:18:47.165Z,8.00
2023-02-18T19:21:13.749Z,8.00
2023-02-18T19:23:40.705Z,8.00
2023-02-18T19:26:07.633Z,8.10
2023-02-18T19:28:34.192Z,8.10
2023-02-18T19:31:00.845Z,8.20
2023-02-18T19:33:27.621Z,8.20
2023-02-18T19:35:54.128Z,8.10
2023-02-18T19:38:20.806Z,8.20
2023-02-18T19:40:47.534Z,8.20
2023-02-18T19:43:14.152Z,8.20
2023-02-18T19:45:43.038Z,8.20
2023-02-18T19:48:10.006Z,8.20
2023-02-18T19:50:36.554Z,8.20
2023-02-18T19:53:03.082Z,8.20
2023-02-18T19:55:29.632Z,8.20
2023-02-18T19:57:56.262Z,8.20
2023-02-18T20:00:22.876Z,8.20
2023-02-18T20:02:50.162Z,8.20
2023-02-18T20:05:17.423Z,8.20
2023-02-18T20:07:46.783Z,8.30
2023-02-18T20:10:17.843Z,8.20
2023-02-18T20:12:44.483Z,8.20
2023-02-18T20:15:11.161Z,8.20
2023-02-18T20:17:39.302Z,8.10
2023-02-18T20:20:06.716Z,8.20
2023-02-18T20:22:33.729Z,8.10
2023-02-18T20:25:00.288Z,8.10
2023-02-18T20:27:26.846Z,8.10
2023-02-18T20:29:53.367Z,8.10
2023-02-18T20:32:20.035Z,8.20
2023-02-18T20:34:46.636Z,8.20
2023-02-18T20:37:13.123Z,8.10
2023-02-18T20:39:39.708Z,8.20
2023-02-18T20:42:15.810Z,8.10
2023-02-18T20:44:43.770Z,8.20
2023-02-18T20:47:12.878Z,8.10
2023-02-18T20:49:40.502Z,8.10
2023-02-18T20:52:07.912Z,8.10
2023-02-18T20:54:34.643Z,8.10
2023-02-18T20:57:01.883Z,8.10
2023-02-18T20:59:29.795Z,8.10
2023-02-18T21:01:56.429Z,8.10
2023-02-18T21:04:23.046Z,8.20
2023-02-18T21:06:50.497Z,8.10
2023-02-18T21:09:17.681Z,8.20
2023-02-18T21:11:44.294Z,8.20
2023-02-18T21:14:10.830Z,8.20
2023-02-18T21:16:40.415Z,8.20
2023-02-18T21:19:08.053Z,8.10
2023-02-18T21:21:35.001Z,8.10
2023-02-18T21:24:02.743Z,8.10
2023-02-18T21:26:29.415Z,8.10
2023-02-18T21:28:57.460Z,8.10
2023-02-18T21:31:25.710Z,8.10
2023-02-18T21:33:52.484Z,8.00
2023-02-18T21:36:19.521Z,8.00
2023-02-18T21:38:50.980Z,8.00
2023-02-18T21:41:17.514Z,8.00
2023-02-18T21:43:44.334Z,8.00
2023-02-18T21:46:14.665Z,8.00
2023-02-18T21:49:00.042Z,8.00
2023-02-18T21:51:45.070Z,8.10
2023-02-18T21:54:11.603Z,8.10
2023-02-18T21:56:38.153Z,8.10
2023-02-18T21:59:04.666Z,8.10
2023-02-18T22:01:31.268Z,8.10
2023-02-18T22:03:57.873Z,8.20
2023-02-18T22:06:24.472Z,8.20
2023-02-18T22:08:51.016Z,8.20
2023-02-18T22:11:17.580Z,8.10
2023-02-18T22:13:44.138Z,8.10
2023-02-18T22:16:10.829Z,8.10
2023-02-18T22:18:37.760Z,8.10
2023-02-18T22:21:05.517Z,8.10
2023-02-18T22:23:32.045Z,8.10
2023-02-18T22:26:01.956Z,8.10
2023-02-18T22:28:28.489Z,8.10
2023-02-18T22:30:55.010Z,8.10
2023-02-18T22:33:21.496Z,8.10
2023-02-18T22:35:48.018Z,8.10
2023-02-18T22:38:14.592Z,8.10
2023-02-18T22:40:41.179Z,8.10
2023-02-18T22:43:07.783Z,8.10
2023-02-18T22:45:37.615Z,8.10
2023-02-18T22:48:04.364Z,8.00
2023-02-18T22:50:30.912Z,8.00
2023-02-18T22:52:57.436Z,8.10
2023-02-18T22:55:23.939Z,8.10
2023-02-18T22:57:50.460Z,8.10
2023-02-18T23:00:17.225Z,8.10
2023-02-18T23:02:49.757Z,8.10
2023-02-18T23:05:16.414Z,8.10
2023-02-18T23:07:43.030Z,8.10
2023-02-18T23:10:09.672Z,8.10
2023-02-18T23:12:36.285Z,8.00
2023-02-18T23:15:02.980Z,8.00
2023-02-18T23:17:29.548Z,8.00
2023-02-18T23:19:56.085Z,8.00
2023-02-18T23:22:32.108Z,7.90
2023-02-18T23:24:59.389Z,8.00
2023-02-18T23:27:26.656Z,8.00
2023-02-18T23:29:53.594Z,8.00
2023-02-18T23:32:20.178Z,7.90
2023-02-18T23:34:46.717Z,7.90
2023-02-18T23:37:13.301Z,8.00
2023-02-18T23:39:40.017Z,8.00
2023-02-18T23:42:06.702Z,8.00
2023-02-18T23:44:33.321Z,8.00
2023-02-18T23:47:03.006Z,8.00
2023-02-18T23:49:29.564Z,8.00
2023-02-18T23:51:57.395Z,8.00
2023-02-18T23:54:24.535Z,7.90
2023-02-18T23:56:51.239Z,8.00
2023-02-18T23:59:18.324Z,8.00
